Time;durP1;ratioP1;P1;durP2;ratioP2;P2;SDS_P1;SDS_P2;PMS_P1;PMS_P2;Temp;Humidity;BMP_temperature;BMP_pressure;BME280_temperature;BME280_humidity;BME280_pressure;Samples;Min_cycle;Max_cycle;Signal;HPM_P1;HPM_P2
2022/07/05 00:01:58;;;;;;;9.52;3.00;;;;;;;23.17;65.66;100582.41;4917344;29;20059;-62
2022/07/05 00:04:43;;;;;;;15.57;4.32;;;;;;;23.70;63.68;100596.81;4917483;29;20399;-61
2022/07/05 00:07:28;;;;;;;12.57;3.20;;;;;;;23.77;62.92;100591.19;4917270;29;20047;-62
2022/07/05 00:10:12;;;;;;;8.82;2.65;;;;;;;23.78;62.68;100575.31;4930193;29;20048;-61
2022/07/05 00:12:58;;;;;;;12.55;3.00;;;;;;;23.74;63.20;100580.91;4936232;29;20074;-61
2022/07/05 00:15:43;;;;;;;4.03;2.22;;;;;;;23.78;62.84;100576.13;4936036;29;20534;-62
2022/07/05 00:18:27;;;;;;;14.38;4.50;;;;;;;23.72;62.70;100577.75;4936016;29;20051;-61
2022/07/05 00:21:32;;;;;;;;;;;;;;;22.70;66.30;100570.72;4936346;29;20074;-61
2022/07/05 00:24:17;;;;;;;5.27;3.10;;;;;;;22.37;67.20;100566.41;4936082;29;19915;-62
2022/07/05 00:27:02;;;;;;;10.88;3.28;;;;;;;22.51;67.49;100566.38;4941975;29;20365;-63
2022/07/05 00:29:47;;;;;;;9.27;2.22;;;;;;;23.14;66.28;100569.38;4945713;29;20047;-63
2022/07/05 00:32:33;;;;;;;8.95;2.10;;;;;;;23.80;63.33;100572.94;4954862;29;20518;-63
2022/07/05 00:35:18;;;;;;;9.48;2.67;;;;;;;24.12;61.53;100573.47;4948936;29;20046;-60
2022/07/05 00:38:03;;;;;;;8.88;2.65;;;;;;;24.22;61.10;100560.72;4940745;29;20058;-63
2022/07/05 00:40:48;;;;;;;7.03;1.85;;;;;;;23.94;61.66;100563.69;4950452;28;20054;-62
2022/07/05 00:43:33;;;;;;;9.35;2.65;;;;;;;23.60;62.36;100561.59;4954414;29;20050;-60
2022/07/05 00:46:18;;;;;;;9.27;2.63;;;;;;;23.68;62.04;100565.09;4941869;29;20729;-61
2022/07/05 00:49:05;;;;;;;7.28;2.58;;;;;;;23.73;62.48;100567.44;4954615;28;20418;-61
2022/07/05 00:51:50;;;;;;;11.40;3.13;;;;;;;23.62;62.53;100567.50;4936444;28;20046;-63
2022/07/05 00:54:37;;;;;;;12.98;4.15;;;;;;;22.96;64.81;100556.34;4940906;29;20043;-59
2022/07/05 00:57:22;;;;;;;11.40;4.75;;;;;;;22.98;64.54;100556.75;4935048;29;20491;-61
2022/07/05 01:00:08;;;;;;;12.63;2.97;;;;;;;23.02;65.11;100551.97;4935282;29;20052;-60
2022/07/05 01:02:53;;;;;;;10.27;2.53;;;;;;;22.93;64.72;100548.84;4935193;29;20058;-59
2022/07/05 01:05:38;;;;;;;4.82;2.03;;;;;;;23.10;65.00;100552.75;4935189;29;20054;-61
2022/07/05 01:08:24;;;;;;;7.50;2.60;;;;;;;23.23;64.17;100551.06;4940759;29;20613;-62
2022/07/05 01:11:10;;;;;;;8.98;2.50;;;;;;;23.93;62.17;100551.00;4921015;29;20519;-60
2022/07/05 01:13:55;;;;;;;8.98;2.28;;;;;;;24.17;61.24;100550.84;4934990;29;20253;-61
2022/07/05 01:16:40;;;;;;;12.90;2.50;;;;;;;24.33;60.74;100555.81;4933836;29;20055;-62
2022/07/05 01:19:26;;;;;;;7.15;2.15;;;;;;;24.68;59.54;100555.44;4934798;29;20435;-62
2022/07/05 01:22:19;;;;;;;5.35;1.92;;;;;;;24.71;59.14;100551.03;4935038;29;20518;-61
2022/07/05 01:25:04;;;;;;;6.70;2.45;;;;;;;24.67;58.91;100553.88;4934023;29;20050;-62
2022/07/05 01:27:51;;;;;;;9.60;2.00;;;;;;;24.78;58.78;100555.75;4940097;29;20054;-60
2022/07/05 01:30:36;;;;;;;9.65;2.80;;;;;;;24.49;58.87;100553.25;4934796;29;20043;-61
2022/07/05 01:33:30;;;;;;;8.38;2.22;;;;;;;24.32;59.89;100547.91;4934640;29;20067;-60
2022/07/05 01:36:15;;;;;;;3.50;1.88;;;;;;;24.65;59.11;100553.47;4934734;29;20047;-60
2022/07/05 01:39:02;;;;;;;6.03;2.55;;;;;;;24.53;58.89;100547.69;4934527;29;20055;-60
2022/07/05 01:41:48;;;;;;;6.32;2.83;;;;;;;24.12;59.65;100550.44;4934816;29;20423;-60
2022/07/05 01:44:33;;;;;;;12.75;2.65;;;;;;;24.08;60.05;100549.69;4934581;29;20506;-61
2022/07/05 01:47:17;;;;;;;7.88;2.15;;;;;;;23.82;60.39;100554.66;4935011;29;20050;-61
2022/07/05 01:50:06;;;;;;;9.15;2.58;;;;;;;23.33;62.21;100554.97;4934436;29;20062;-61
2022/07/05 01:52:51;;;;;;;4.28;2.15;;;;;;;22.91;63.74;100556.78;4934673;29;20047;-61
2022/07/05 01:55:39;;;;;;;11.02;2.80;;;;;;;23.34;62.78;100562.13;4934518;29;20059;-61
2022/07/05 01:58:25;;;;;;;9.27;1.90;;;;;;;24.00;60.92;100559.28;4934582;29;20032;-62
2022/07/05 02:01:10;;;;;;;7.30;1.63;;;;;;;24.42;59.29;100558.13;4934416;29;20530;-61
2022/07/05 02:03:55;;;;;;;6.28;2.42;;;;;;;24.23;57.77;100551.16;4937974;29;20403;-63
2022/07/05 02:06:40;;;;;;;6.45;2.40;;;;;;;24.31;59.10;100561.00;4934454;29;20054;-63
2022/07/05 02:09:26;;;;;;;7.30;1.95;;;;;;;24.58;57.91;100567.47;4933855;29;20255;-63
2022/07/05 02:12:12;;;;;;;5.55;1.58;;;;;;;24.53;56.93;100570.69;4941167;29;20124;-61
2022/07/05 02:18:10;;;;;;;3.67;1.15;;;;;;;24.97;56.14;100569.81;4843555;29;20427;-83
2022/07/05 02:20:57;;;;;;;16.50;1.20;;;;;;;25.12;55.09;100574.00;4871989;29;20044;-85
2022/07/05 02:23:43;;;;;;;2.10;0.90;;;;;;;25.18;54.14;100574.34;4885192;29;20045;-85
2022/07/05 02:26:28;;;;;;;2.63;1.10;;;;;;;25.22;53.60;100577.06;4884672;29;20056;-84
2022/07/05 02:29:14;;;;;;;3.72;1.00;;;;;;;25.38;52.83;100574.44;4897412;29;20047;-84
2022/07/05 02:31:59;;;;;;;0.93;0.57;;;;;;;25.32;52.28;100570.56;4884315;29;20059;-83
2022/07/05 02:34:46;;;;;;;4.57;1.20;;;;;;;25.25;52.48;100579.78;4867007;29;20060;-85
2022/07/05 02:37:31;;;;;;;1.65;0.85;;;;;;;25.28;52.53;100576.19;4892965;29;20529;-84
2022/07/05 02:40:16;;;;;;;3.35;0.70;;;;;;;25.24;52.91;100575.44;4888657;29;20694;-82
2022/07/05 02:43:07;;;;;;;0.90;0.57;;;;;;;24.66;53.32;100585.66;4880657;29;20544;-81
2022/07/05 02:45:51;;;;;;;3.80;0.82;;;;;;;24.49;53.71;100580.28;4892180;29;20048;-81
2022/07/05 02:48:38;;;;;;;1.65;0.63;;;;;;;24.46;54.45;100592.22;4890933;29;20052;-87
2022/07/05 02:51:24;;;;;;;6.90;1.10;;;;;;;24.31;54.92;100583.25;4876896;29;20076;-83
2022/07/05 02:54:12;;;;;;;3.65;0.82;;;;;;;24.71;54.63;100595.53;4879253;29;20064;-86
2022/07/05 02:56:58;;;;;;;1.40;0.57;;;;;;;24.92;53.69;100598.13;4889314;29;20131;-83
2022/07/05 02:59:45;;;;;;;1.60;0.60;;;;;;;25.21;52.83;100597.75;4894214;29;20060;-83
2022/07/05 03:02:30;;;;;;;8.65;0.70;;;;;;;25.42;52.06;100609.38;4892517;29;20068;-83
2022/07/05 03:05:17;;;;;;;3.38;0.80;;;;;;;25.52;51.22;100602.88;4890849;29;20064;-83
2022/07/05 03:08:10;;;;;;;5.15;1.00;;;;;;;25.53;51.24;100614.81;4894418;29;20540;-82
2022/07/05 03:10:59;;;;;;;3.05;0.98;;;;;;;25.49;51.42;100626.00;4878364;29;20422;-84
2022/07/05 03:13:46;;;;;;;1.13;0.60;;;;;;;25.48;51.54;100613.28;4892690;29;20056;-83
2022/07/05 03:16:31;;;;;;;1.90;0.65;;;;;;;25.53;51.68;100615.59;4892607;29;20056;-87
2022/07/05 03:19:16;;;;;;;1.85;0.95;;;;;;;25.28;52.26;100620.72;4878190;29;20048;-85
2022/07/05 03:22:02;;;;;;;1.63;0.80;;;;;;;25.29;52.82;100607.59;4895030;29;20056;-86
2022/07/05 03:24:48;;;;;;;3.60;0.70;;;;;;;25.33;52.63;100603.56;4898370;29;20418;-86
2022/07/05 03:27:35;;;;;;;0.90;0.80;;;;;;;25.44;52.99;100601.41;4881479;29;20513;-86
2022/07/05 03:30:20;;;;;;;3.47;1.02;;;;;;;25.64;52.55;100607.13;4880795;29;20532;-85
2022/07/05 03:33:04;;;;;;;1.55;0.85;;;;;;;25.69;52.38;100600.28;4897923;29;20071;-85
2022/07/05 03:35:51;;;;;;;1.98;0.77;;;;;;;25.78;52.48;100600.53;4881693;29;20056;-84
2022/07/05 03:38:37;;;;;;;3.05;0.80;;;;;;;25.79;52.07;100600.13;4895183;29;20430;-85
2022/07/05 03:41:22;;;;;;;2.30;0.98;;;;;;;25.84;51.70;100601.66;4887685;29;20056;-85
2022/07/05 03:44:09;;;;;;;3.72;0.95;;;;;;;25.60;51.66;100583.31;4881292;29;20055;-84
2022/07/05 03:46:54;;;;;;;8.40;0.90;;;;;;;25.76;51.08;100572.31;4894505;29;20056;-85
2022/07/05 03:49:39;;;;;;;5.72;1.13;;;;;;;25.57;50.71;100564.66;4880729;29;20513;-85
2022/07/05 03:52:24;;;;;;;3.13;0.60;;;;;;;25.45;51.19;100557.63;4896461;29;20056;-84
2022/07/05 03:55:09;;;;;;;1.60;0.50;;;;;;;25.11;51.84;100552.16;4880436;29;20072;-84
2022/07/05 03:57:53;;;;;;;1.67;0.45;;;;;;;25.14;51.91;100542.97;4885051;29;20532;-84
2022/07/05 04:00:38;;;;;;;2.92;1.17;;;;;;;24.97;52.47;100544.00;4892146;29;20059;-84
2022/07/05 04:03:26;;;;;;;3.83;0.88;;;;;;;24.73;52.83;100550.63;4894838;29;20044;-83
2022/07/05 04:06:12;;;;;;;2.47;0.90;;;;;;;24.64;53.22;100560.25;4892266;29;20108;-83
2022/07/05 04:08:57;;;;;;;3.53;0.80;;;;;;;24.81;53.60;100557.69;4895977;29;20522;-82
2022/07/05 04:11:42;;;;;;;4.05;0.82;;;;;;;24.96;53.54;100509.03;4881319;29;20059;-82
2022/07/05 04:14:27;;;;;;;4.53;0.90;;;;;;;25.07;53.03;100454.00;4879478;29;20067;-82
2022/07/05 04:17:12;;;;;;;8.23;1.58;;;;;;;24.06;55.79;100440.97;4877244;29;20084;-81
2022/07/05 04:19:58;;;;;;;12.00;1.70;;;;;;;23.94;57.12;100466.47;4885037;29;20052;-83
2022/07/05 04:22:43;;;;;;;3.75;1.35;;;;;;;22.82;61.72;100491.84;4875622;29;20435;-80
2022/07/05 04:25:28;;;;;;;9.55;1.70;;;;;;;22.46;63.20;100508.59;4882082;29;20064;-81
2022/07/05 04:28:26;;;;;;;9.80;1.88;;;;;;;22.42;64.26;100512.56;4875726;29;20056;-81
2022/07/05 04:31:15;;;;;;;5.57;1.65;;;;;;;23.16;62.35;100547.56;4884733;29;20060;-85
2022/07/05 04:34:04;;;;;;;6.32;2.58;;;;;;;23.98;59.25;100565.25;4874794;29;20059;-85
2022/07/05 04:36:52;;;;;;;10.35;1.50;;;;;;;24.23;58.73;100590.06;4877920;29;20052;-84
2022/07/05 04:39:37;;;;;;;4.63;1.02;;;;;;;23.94;59.17;100597.03;4896054;29;20056;-87
2022/07/05 04:42:26;;;;;;;4.80;1.58;;;;;;;23.67;60.02;100591.28;4879098;29;20623;-85
2022/07/05 04:45:11;;;;;;;4.65;1.50;;;;;;;23.95;59.24;100581.94;4879391;29;20166;-86
2022/07/05 04:47:58;;;;;;;9.27;1.75;;;;;;;24.43;57.58;100581.94;4883563;29;20052;-86
2022/07/05 04:50:44;;;;;;;3.63;1.52;;;;;;;24.17;58.01;100572.28;4893239;29;20525;-84
2022/07/05 04:53:30;;;;;;;2.75;0.95;;;;;;;24.26;57.61;100555.91;4878012;29;20072;-84
2022/07/05 04:56:15;;;;;;;6.97;1.38;;;;;;;24.07;58.28;100565.59;4885273;29;20068;-82
2022/07/05 04:59:00;;;;;;;1.70;0.95;;;;;;;24.32;57.56;100576.50;4883494;29;20048;-82
2022/07/05 05:01:45;;;;;;;2.55;0.90;;;;;;;24.65;57.05;100581.28;4876690;29;20064;-82
2022/07/05 05:04:31;;;;;;;6.07;1.15;;;;;;;24.90;56.07;100575.47;4873555;29;20056;-80
2022/07/05 05:07:16;;;;;;;7.28;1.45;;;;;;;25.17;55.09;100586.66;4888931;29;20052;-80
2022/07/05 05:10:01;;;;;;;2.70;1.00;;;;;;;25.50;54.13;100596.94;4890730;29;20159;-80
2022/07/05 05:12:46;;;;;;;4.40;1.15;;;;;;;25.62;54.14;100608.75;4876517;29;20068;-80
2022/07/05 05:15:31;;;;;;;2.65;0.77;;;;;;;25.42;54.47;100606.59;4815933;29;1439638;-83
2022/07/05 05:18:18;;;;;;;2.20;1.00;;;;;;;24.88;55.81;100602.94;4873371;29;20049;-80
2022/07/05 05:21:04;;;;;;;4.97;1.10;;;;;;;24.54;55.50;100600.09;4870292;29;20052;-80
2022/07/05 05:23:48;;;;;;;5.70;1.00;;;;;;;24.80;55.57;100603.38;4894410;29;20071;-80
2022/07/05 05:26:33;;;;;;;1.60;0.82;;;;;;;24.79;56.30;100593.47;4878088;29;20056;-81
2022/07/05 05:29:20;;;;;;;5.63;1.20;;;;;;;25.02;55.81;100610.31;4876597;29;20056;-84
2022/07/05 05:32:05;;;;;;;4.25;1.00;;;;;;;25.41;54.66;100607.81;4893634;29;20052;-80
2022/07/05 05:34:49;;;;;;;6.15;1.15;;;;;;;25.60;54.24;100606.38;4878641;29;20064;-80
2022/07/05 05:37:47;;;;;;;;;;;;;;;25.72;53.68;100614.16;4878055;29;20052;-80
2022/07/05 05:40:33;;;;;;;5.60;1.15;;;;;;;25.81;53.53;100624.75;4898939;29;19916;-79
2022/07/05 05:43:17;;;;;;;5.75;1.27;;;;;;;26.09;50.52;100623.53;4883018;29;20051;-81
2022/07/05 05:46:03;;;;;;;21.40;2.28;;;;;;;26.11;51.29;100632.28;4878826;29;20078;-81
2022/07/05 05:48:48;;;;;;;7.90;1.25;;;;;;;26.18;50.25;100632.16;4882631;29;20061;-81
2022/07/05 05:51:33;;;;;;;13.30;1.40;;;;;;;26.38;50.04;100638.59;4893508;29;20437;-80
2022/07/05 05:54:18;;;;;;;11.07;1.20;;;;;;;26.31;50.51;100645.09;4887804;29;20056;-80
2022/07/05 05:57:03;;;;;;;9.63;1.30;;;;;;;26.34;50.49;100644.25;4877221;29;20049;-79
2022/07/05 05:59:48;;;;;;;4.65;1.13;;;;;;;26.45;50.85;100644.06;4876997;29;20052;-79
2022/07/05 06:02:33;;;;;;;6.63;2.13;;;;;;;26.51;50.49;100642.38;4880020;29;20056;-80
2022/07/05 06:05:18;;;;;;;2.70;1.20;;;;;;;26.68;49.61;100646.03;4882141;29;20071;-80
2022/07/05 06:08:03;;;;;;;10.32;1.30;;;;;;;26.86;49.00;100652.09;4872890;29;20114;-80
2022/07/05 06:10:48;;;;;;;5.35;1.23;;;;;;;26.91;48.88;100651.63;4880534;29;20181;-80
2022/07/05 06:13:33;;;;;;;3.40;1.58;;;;;;;27.05;48.38;100662.50;4885796;29;20065;-80
2022/07/05 06:16:18;;;;;;;8.25;2.17;;;;;;;26.79;48.11;100655.00;4885799;29;20062;-82
2022/07/05 06:19:03;;;;;;;13.43;2.67;;;;;;;26.83;49.80;100662.09;4879042;29;20056;-86
2022/07/05 06:21:47;;;;;;;;;;;;;;;27.08;48.51;100670.00;4878377;29;20041;-80
2022/07/05 06:24:33;;;;;;;3.97;1.75;;;;;;;27.26;48.25;100666.06;4892494;29;19916;-82
2022/07/05 06:27:18;;;;;;;6.53;1.83;;;;;;;27.58;46.85;100667.00;4882842;29;20055;-80
2022/07/05 06:30:04;;;;;;;13.35;2.10;;;;;;;27.49;46.55;100677.97;4862938;29;20052;-80
2022/07/05 06:32:50;;;;;;;23.15;2.38;;;;;;;27.83;47.46;100669.25;4875848;29;20055;-80
2022/07/05 06:35:35;;;;;;;19.38;2.42;;;;;;;28.03;46.67;100663.59;4885254;29;20053;-80
2022/07/05 06:38:20;;;;;;;18.80;2.40;;;;;;;28.20;46.73;100670.00;4873807;29;20053;-79
2022/07/05 06:41:05;;;;;;;7.88;1.50;;;;;;;28.46;45.98;100674.53;4865218;29;20045;-80
2022/07/05 06:43:50;;;;;;;23.98;3.47;;;;;;;28.69;45.20;100679.16;4875797;29;20067;-79
2022/07/05 06:46:42;;;;;;;23.75;3.17;;;;;;;29.04;44.36;100681.00;4879726;29;20417;-79
2022/07/05 06:49:27;;;;;;;18.23;3.22;;;;;;;29.52;43.33;100674.44;4878005;29;20041;-80
2022/07/05 06:52:12;;;;;;;11.20;2.35;;;;;;;29.84;40.83;100669.88;4855762;29;20056;-80
2022/07/05 06:54:58;;;;;;;10.80;1.52;;;;;;;31.81;37.63;100673.34;4865060;29;20053;-80
2022/07/05 06:57:43;;;;;;;16.70;1.95;;;;;;;33.18;34.38;100682.09;4887237;29;20064;-80
2022/07/05 07:00:29;;;;;;;15.75;3.10;;;;;;;33.16;32.96;100683.81;4894634;29;20053;-78
2022/07/05 07:03:14;;;;;;;8.00;2.20;;;;;;;30.67;38.28;100684.41;4885488;29;20056;-78
2022/07/05 07:05:58;;;;;;;17.42;3.00;;;;;;;29.82;40.83;100680.75;4896454;29;20048;-78
2022/07/05 07:11:48;;;;;;;12.10;1.90;;;;;;;29.21;41.92;100676.13;4864353;29;20064;-78
2022/07/05 07:14:33;;;;;;;6.68;1.77;;;;;;;29.02;42.47;100679.88;4895074;29;20415;-78
2022/07/05 07:17:18;;;;;;;5.55;2.20;;;;;;;28.98;43.28;100682.00;4892848;29;20064;-78
2022/07/05 07:20:03;;;;;;;8.65;1.90;;;;;;;28.95;43.16;100682.88;4883205;29;20064;-78
2022/07/05 07:22:48;;;;;;;5.47;1.95;;;;;;;28.88;42.21;100687.44;4896244;29;20063;-78
2022/07/05 07:25:33;;;;;;;5.35;2.00;;;;;;;28.83;42.95;100682.38;4878144;29;20052;-78
2022/07/05 07:28:17;;;;;;;5.70;1.42;;;;;;;28.79;43.55;100678.91;4870981;29;20049;-78
2022/07/05 07:31:03;;;;;;;6.63;2.47;;;;;;;28.78;43.13;100680.13;4896054;29;20052;-78
2022/07/05 07:33:48;;;;;;;5.28;1.70;;;;;;;28.81;43.15;100676.41;4898583;29;20401;-78
2022/07/05 07:36:32;;;;;;;5.18;1.77;;;;;;;28.80;42.54;100674.84;4861429;29;20415;-77
2022/07/05 07:39:17;;;;;;;10.65;1.95;;;;;;;28.91;42.38;100675.34;4878157;29;20051;-78
2022/07/05 07:42:02;;;;;;;11.02;2.00;;;;;;;28.91;41.87;100675.34;4891709;29;20045;-78
2022/07/05 07:44:47;;;;;;;7.10;1.50;;;;;;;28.91;42.39;100680.16;4892355;29;20048;-78
2022/07/05 07:47:33;;;;;;;8.68;1.70;;;;;;;28.88;42.83;100681.06;4896054;29;20065;-78
2022/07/05 07:50:18;;;;;;;9.07;1.67;;;;;;;28.86;42.59;100673.09;4890223;29;20048;-78
2022/07/05 07:53:03;;;;;;;7.18;1.40;;;;;;;28.90;42.24;100675.81;4900991;29;20065;-78
2022/07/05 07:55:48;;;;;;;4.88;2.20;;;;;;;28.95;42.65;100680.09;4891400;29;20055;-78
2022/07/05 07:58:33;;;;;;;14.18;2.50;;;;;;;28.95;43.38;100677.28;4879139;29;20520;-78
2022/07/05 08:01:17;;;;;;;8.43;2.53;;;;;;;28.97;43.85;100674.81;4891346;29;20049;-78
2022/07/05 08:04:02;;;;;;;4.38;2.15;;;;;;;29.11;43.16;100671.59;4875449;29;20441;-78
2022/07/05 08:06:47;;;;;;;9.15;2.67;;;;;;;29.10;42.48;100673.66;4884764;29;20450;-78
2022/07/05 08:09:33;;;;;;;11.05;3.63;;;;;;;29.15;42.37;100669.50;4876038;29;20517;-78
2022/07/05 08:12:19;;;;;;;9.93;2.83;;;;;;;29.16;42.87;100671.06;4887095;29;20048;-78
2022/07/05 08:15:14;;;;;;;5.80;1.90;;;;;;;29.05;42.19;100657.38;4883000;29;20528;-78
2022/07/05 08:24:14;;;;;;;4.93;1.50;;;;;;;29.19;41.66;100668.19;4882518;29;20541;-78
2022/07/05 08:26:59;;;;;;;7.03;1.48;;;;;;;29.21;41.60;100670.50;4911176;29;20044;-78
2022/07/05 08:29:44;;;;;;;5.68;1.48;;;;;;;29.25;41.15;100671.22;4910035;29;20043;-78
2022/07/05 08:32:29;;;;;;;7.75;1.70;;;;;;;29.32;41.14;100671.03;4917575;29;20051;-78
2022/07/05 08:35:13;;;;;;;4.55;1.45;;;;;;;29.38;39.65;100660.84;4927357;29;20067;-78
2022/07/05 08:37:58;;;;;;;3.78;1.40;;;;;;;29.46;38.66;100672.66;4912566;29;20050;-78
2022/07/05 08:40:50;;;;;;;5.32;1.50;;;;;;;29.44;38.93;100663.88;4911985;29;20064;-78
2022/07/05 08:43:39;;;;;;;9.02;1.67;;;;;;;29.51;39.34;100666.50;4938557;29;20425;-78
2022/07/05 08:46:25;;;;;;;5.45;1.60;;;;;;;29.53;40.15;100661.19;4921601;29;20412;-78
2022/07/05 08:49:12;;;;;;;7.47;2.08;;;;;;;29.49;40.91;100668.94;4919115;29;20047;-77
2022/07/05 08:51:59;;;;;;;8.15;1.83;;;;;;;29.51;40.93;100672.84;4910040;29;20405;-78
2022/07/05 08:54:46;;;;;;;9.10;1.80;;;;;;;29.55;40.91;100670.75;4904263;29;20056;-77
2022/07/05 08:57:30;;;;;;;4.20;2.05;;;;;;;29.60;40.77;100673.00;4909648;29;20055;-78
2022/07/05 09:00:16;;;;;;;5.63;1.85;;;;;;;29.61;40.54;100662.56;4895225;29;20514;-78
2022/07/05 09:03:01;;;;;;;5.15;1.80;;;;;;;29.63;41.12;100666.50;4904649;29;20447;-78
2022/07/05 09:05:46;;;;;;;4.45;1.60;;;;;;;29.68;40.88;100663.13;4896755;29;20056;-78
2022/07/05 09:08:38;;;;;;;3.72;1.23;;;;;;;29.66;40.90;100657.16;4910125;29;20048;-77
2022/07/05 09:11:30;;;;;;;5.88;1.20;;;;;;;29.66;41.31;100657.16;4908297;29;20060;-79
2022/07/05 09:14:25;;;;;;;3.60;1.63;;;;;;;29.69;41.03;100656.28;4917471;29;20421;-79
2022/07/05 09:17:10;;;;;;;17.38;2.97;;;;;;;29.79;40.31;100662.00;4921424;29;20421;-79
2022/07/05 09:20:11;;;;;;;5.88;1.80;;;;;;;29.94;39.99;100661.16;4927462;29;20048;-79
2022/07/05 09:22:57;;;;;;;9.45;1.95;;;;;;;30.01;40.24;100660.13;4943751;29;20114;-79
2022/07/05 09:25:42;;;;;;;10.05;2.25;;;;;;;30.12;40.82;100652.16;4926301;29;20043;-79
2022/07/05 09:28:26;;;;;;;10.50;2.53;;;;;;;30.26;40.15;100656.50;4926893;29;20059;-79
2022/07/05 09:31:27;;;;;;;9.30;1.92;;;;;;;30.27;39.87;100656.06;4926230;29;20066;-79
2022/07/05 09:34:15;;;;;;;8.82;2.75;;;;;;;30.24;39.93;100645.72;4922590;29;20051;-79
2022/07/05 09:37:02;;;;;;;9.63;2.35;;;;;;;30.31;39.92;100659.53;4917156;29;20035;-79
2022/07/05 09:39:47;;;;;;;3.33;1.60;;;;;;;30.39;39.17;100655.25;4911117;29;20055;-79
2022/07/05 09:42:32;;;;;;;33.65;2.88;;;;;;;30.46;38.90;100643.81;4914653;29;20072;-79
2022/07/05 09:45:23;;;;;;;3.63;1.67;;;;;;;30.59;39.89;100655.78;4938983;29;20054;-79
2022/07/05 09:48:08;;;;;;;3.38;1.98;;;;;;;30.71;38.85;100653.38;4942262;29;20043;-79
2022/07/05 09:51:09;;;;;;;5.40;2.05;;;;;;;30.69;38.63;100653.03;4927589;29;20445;-79
2022/07/05 09:53:56;;;;;;;6.25;2.42;;;;;;;30.72;38.19;100649.34;4927451;29;20409;-79
2022/07/05 09:56:48;;;;;;;7.80;1.45;;;;;;;30.75;38.77;100645.63;4916060;29;20051;-79
2022/07/05 09:59:33;;;;;;;14.45;2.25;;;;;;;30.81;39.73;100650.19;4931017;29;20055;-77
2022/07/05 10:02:35;;;;;;;10.68;1.88;;;;;;;30.91;38.96;100639.81;4909249;29;20051;-77
2022/07/05 10:05:21;;;;;;;6.55;1.63;;;;;;;30.85;38.86;100639.63;4905035;29;20043;-77
2022/07/05 10:08:06;;;;;;;8.15;1.83;;;;;;;30.86;38.97;100646.03;4896811;29;20055;-78
2022/07/05 10:10:52;;;;;;;2.88;1.75;;;;;;;31.09;38.06;100648.41;4898853;29;20063;-78
2022/07/05 10:13:38;;;;;;;3.45;1.60;;;;;;;31.20;37.94;100640.34;4900765;29;20052;-77
2022/07/05 10:16:23;;;;;;;7.97;2.13;;;;;;;31.25;37.73;100642.56;4893440;29;20052;-77
2022/07/05 10:19:17;;;;;;;1.77;1.25;;;;;;;31.25;37.34;100642.56;4919336;29;20051;-78
2022/07/05 10:22:04;;;;;;;6.18;1.60;;;;;;;31.26;37.34;100638.53;4908512;29;20040;-78
2022/07/05 10:24:49;;;;;;;5.80;2.28;;;;;;;31.39;37.19;100639.22;4910426;29;20064;-78
2022/07/05 10:27:35;;;;;;;9.15;1.70;;;;;;;31.42;36.73;100635.50;4906864;29;20433;-77
2022/07/05 10:30:22;;;;;;;7.28;1.58;;;;;;;31.47;36.40;100636.13;4921744;29;20525;-78
2022/07/05 10:33:07;;;;;;;3.05;1.13;;;;;;;31.59;35.74;100632.50;4917331;29;20421;-77
2022/07/05 10:35:53;;;;;;;3.45;1.45;;;;;;;31.73;35.18;100634.75;4930424;29;20754;-79
2022/07/05 10:38:41;;;;;;;5.30;1.35;;;;;;;31.66;35.75;100632.19;4897354;29;20048;-77
2022/07/05 10:41:28;;;;;;;3.40;1.48;;;;;;;31.74;35.58;100633.50;4921479;29;20059;-78
2022/07/05 10:44:25;;;;;;;2.60;1.15;;;;;;;31.74;36.08;100634.28;4908215;29;20425;-79
2022/07/05 10:47:11;;;;;;;44.47;10.18;;;;;;;31.79;35.67;100621.63;4914202;29;20047;-78
2022/07/05 10:50:02;;;;;;;8.63;2.70;;;;;;;31.94;34.32;100622.63;4912005;29;20037;-78
2022/07/05 10:53:02;;;;;;;25.90;8.40;;;;;;;31.98;35.00;100616.84;4899707;29;20059;-77
2022/07/05 10:55:52;;;;;;;13.75;3.55;;;;;;;31.98;34.67;100614.03;4900655;29;20037;-77
2022/07/05 10:58:43;;;;;;;8.15;2.65;;;;;;;32.10;34.50;100622.34;4899904;29;20421;-78
2022/07/05 11:01:28;;;;;;;60.70;15.30;;;;;;;32.00;35.34;100623.56;4889791;29;20496;-76
2022/07/05 11:04:27;;;;;;;66.28;16.38;;;;;;;31.92;35.82;100622.28;4899403;29;20052;-77
2022/07/05 11:07:11;;;;;;;27.85;8.00;;;;;;;31.89;35.69;100617.63;4914553;29;20044;-77
2022/07/05 11:10:01;;;;;;;38.17;10.65;;;;;;;31.91;36.23;100609.47;4888616;29;20041;-77
2022/07/05 11:12:45;;;;;;;34.63;9.63;;;;;;;31.85;36.30;100611.31;4886140;29;20045;-77
2022/07/05 11:15:30;;;;;;;28.88;7.63;;;;;;;31.96;35.94;100611.66;4901784;29;20406;-77
2022/07/05 11:18:15;;;;;;;11.38;2.90;;;;;;;32.00;35.31;100609.50;4891624;29;20045;-77
2022/07/05 11:21:21;;;;;;;23.00;6.60;;;;;;;32.13;34.77;100607.38;4893820;29;20040;-77
2022/07/05 11:24:18;;;;;;;16.27;5.68;;;;;;;32.04;35.26;100601.72;4889331;29;20045;-77
2022/07/05 11:27:09;;;;;;;20.90;6.20;;;;;;;31.99;35.35;100609.97;4903047;29;20415;-79
2022/07/05 11:29:55;;;;;;;14.25;4.15;;;;;;;31.98;35.19;100602.78;4885238;29;20037;-77
2022/07/05 11:32:40;;;;;;;11.82;3.53;;;;;;;31.98;35.39;100600.75;4891238;29;20052;-77
2022/07/05 11:35:33;;;;;;;9.85;3.75;;;;;;;31.90;35.52;100596.66;4896603;29;20052;-77
2022/07/05 11:38:17;;;;;;;9.65;2.72;;;;;;;31.86;35.56;100590.38;4899257;29;20051;-77
2022/07/05 11:41:13;;;;;;;6.22;2.10;;;;;;;32.14;34.86;100592.06;4915165;29;20051;-77
2022/07/05 11:43:58;;;;;;;4.53;1.52;;;;;;;32.17;34.40;100593.94;4918111;29;20055;-77
2022/07/05 11:46:44;;;;;;;9.10;3.03;;;;;;;32.21;35.16;100593.78;4918380;29;20075;-77
2022/07/05 11:49:30;;;;;;;9.77;2.22;;;;;;;32.30;34.74;100591.00;4919562;29;20056;-77
2022/07/05 11:52:15;;;;;;;8.15;2.63;;;;;;;32.23;34.32;100585.66;4924488;29;20052;-77
2022/07/05 11:55:03;;;;;;;3.42;1.25;;;;;;;32.23;34.66;100580.81;4899631;29;20051;-77
2022/07/05 11:57:50;;;;;;;4.07;1.35;;;;;;;32.34;33.95;100573.94;4917018;29;20524;-77
2022/07/05 12:00:36;;;;;;;11.23;1.90;;;;;;;32.12;34.96;100574.84;4922306;29;20535;-76
2022/07/05 12:03:21;;;;;;;6.28;1.52;;;;;;;32.12;35.16;100588.13;4916311;29;20049;-77
2022/07/05 12:06:17;;;;;;;3.72;1.38;;;;;;;32.21;34.50;100583.31;4905900;29;20050;-77
2022/07/05 12:09:05;;;;;;;6.22;1.42;;;;;;;32.13;34.93;100576.41;4908146;29;20051;-77
2022/07/05 12:14:58;;;;;;;6.13;1.10;;;;;;;32.11;34.69;100581.72;4931773;29;20055;-77
2022/07/05 12:17:48;;;;;;;3.53;0.88;;;;;;;32.41;33.53;100582.09;4935936;29;20063;-77
2022/07/05 12:20:35;;;;;;;4.95;0.95;;;;;;;32.37;34.13;100576.59;4925650;29;20040;-77
2022/07/05 12:23:26;;;;;;;2.88;0.93;;;;;;;32.21;34.67;100580.47;4904566;29;20055;-77
2022/07/05 12:26:12;;;;;;;3.08;1.05;;;;;;;32.10;34.97;100571.69;4904796;29;20056;-76
2022/07/05 12:28:57;;;;;;;3.92;1.02;;;;;;;32.10;34.96;100577.31;4906858;29;20063;-77
2022/07/05 12:31:58;;;;;;;3.25;0.80;;;;;;;32.06;35.16;100568.25;4915699;29;20528;-77
2022/07/05 12:34:43;;;;;;;1.38;0.82;;;;;;;32.08;34.86;100574.19;4917422;29;20457;-77
2022/07/05 12:37:28;;;;;;;3.85;1.63;;;;;;;32.43;32.67;100579.56;4917406;29;20055;-77
2022/07/05 12:40:12;;;;;;;3.20;0.85;;;;;;;32.46;33.53;100573.78;4917405;29;20051;-77
2022/07/05 12:43:06;;;;;;;2.05;0.60;;;;;;;32.50;34.00;100565.19;4904608;29;20055;-77
2022/07/05 12:46:03;;;;;;;9.20;1.17;;;;;;;32.57;34.07;100562.03;4901024;29;20055;-77
2022/07/05 12:48:55;;;;;;;2.38;1.10;;;;;;;32.56;34.32;100561.25;4909308;29;20235;-77
2022/07/05 12:51:41;;;;;;;2.65;0.88;;;;;;;32.52;33.77;100557.81;4916945;29;20047;-77
2022/07/05 13:00:32;;;;;;;4.03;1.13;;;;;;;32.29;34.49;100555.66;4902669;29;20071;-77
2022/07/05 13:03:17;;;;;;;2.63;1.02;;;;;;;32.32;34.44;100548.28;4897062;29;20063;-77
2022/07/05 13:06:02;;;;;;;1.80;0.90;;;;;;;32.18;35.21;100550.47;4905698;29;20071;-76
2022/07/05 13:08:56;;;;;;;1.92;1.00;;;;;;;32.35;34.84;100559.41;4907434;29;20051;-77
2022/07/05 13:11:42;;;;;;;2.95;1.20;;;;;;;32.22;35.17;100561.56;4905548;29;20441;-77
2022/07/05 13:14:26;;;;;;;3.22;0.95;;;;;;;32.30;34.96;100560.03;4916016;29;20063;-77
2022/07/05 13:17:12;;;;;;;5.30;1.40;;;;;;;32.31;35.01;100572.81;4916451;29;20055;-77